sensor_id;sensor_type;location;lat;lon;timestamp;pressure;altitude;pressure_sealevel;temperature;humidity
10093;BME280;5085;48.092;11.484;2022-11-14T00:01:49;95204.47;;;4.43;100.00
10093;BME280;5085;48.092;11.484;2022-11-14T00:04:34;95210.84;;;4.42;100.00
10093;BME280;5085;48.092;11.484;2022-11-14T00:07:18;95217.44;;;4.39;100.00
10093;BME280;5085;48.092;11.484;2022-11-14T00:10:03;95208.88;;;4.37;100.00
10093;BME280;5085;48.092;11.484;2022-11-14T00:12:48;95206.19;;;4.37;100.00
10093;BME280;5085;48.092;11.484;2022-11-14T00:15:33;95200.88;;;4.37;100.00
10093;BME280;5085;48.092;11.484;2022-11-14T00:18:18;95192.66;;;4.39;100.00
10093;BME280;5085;48.092;11.484;2022-11-14T00:21:02;95184.31;;;4.35;100.00
10093;BME280;5085;48.092;11.484;2022-11-14T00:23:47;95180.25;;;4.33;100.00
10093;BME280;5085;48.092;11.484;2022-11-14T00:26:31;95175.41;;;4.30;100.00
10093;BME280;5085;48.092;11.484;2022-11-14T00:29:16;95175.63;;;4.28;100.00
10093;BME280;5085;48.092;11.484;2022-11-14T00:32:00;95176.66;;;4.27;100.00
10093;BME280;5085;48.092;11.484;2022-11-14T00:34:45;95165.44;;;4.25;100.00
10093;BME280;5085;48.092;11.484;2022-11-14T00:37:29;95174.94;;;4.21;100.00
10093;BME280;5085;48.092;11.484;2022-11-14T00:40:14;95160.69;;;4.15;100.00
10093;BME280;5085;48.092;11.484;2022-11-14T00:42:59;95170.44;;;4.10;100.00
10093;BME280;5085;48.092;11.484;2022-11-14T00:45:43;95179.13;;;4.05;100.00
10093;BME280;5085;48.092;11.484;2022-11-14T00:48:28;95198.47;;;4.00;100.00
10093;BME280;5085;48.092;11.484;2022-11-14T00:51:13;95211.78;;;4.00;100.00
10093;BME280;5085;48.092;11.484;2022-11-14T00:53:58;95203.81;;;4.00;100.00
10093;BME280;5085;48.092;11.484;2022-11-14T00:56:42;95201.13;;;4.00;100.00
10093;BME280;5085;48.092;11.484;2022-11-14T00:59:27;95193.59;;;3.97;100.00
10093;BME280;5085;48.092;11.484;2022-11-14T01:02:11;95195.22;;;3.98;100.00
10093;BME280;5085;48.092;11.484;2022-11-14T01:04:56;95200.78;;;3.97;100.00
10093;BME280;5085;48.092;11.484;2022-11-14T01:07:40;95190.03;;;3.92;100.00
10093;BME280;5085;48.092;11.484;2022-11-14T01:10:25;95194.75;;;3.90;100.00
10093;BME280;5085;48.092;11.484;2022-11-14T01:13:10;95197.91;;;3.87;100.00
10093;BME280;5085;48.092;11.484;2022-11-14T01:15:54;95194.88;;;3.83;100.00
10093;BME280;5085;48.092;11.484;2022-11-14T01:18:43;95192.91;;;3.79;100.00
10093;BME280;5085;48.092;11.484;2022-11-14T01:21:27;95190.69;;;3.75;100.00
10093;BME280;5085;48.092;11.484;2022-11-14T01:24:11;95191.97;;;3.73;100.00
10093;BME280;5085;48.092;11.484;2022-11-14T01:26:56;95198.56;;;3.70;100.00
10093;BME280;5085;48.092;11.484;2022-11-14T01:29:41;95206.44;;;3.65;100.00
10093;BME280;5085;48.092;11.484;2022-11-14T01:32:26;95209.75;;;3.61;100.00
10093;BME280;5085;48.092;11.484;2022-11-14T01:35:10;95203.06;;;3.58;100.00
10093;BME280;5085;48.092;11.484;2022-11-14T01:37:54;95190.56;;;3.59;100.00
10093;BME280;5085;48.092;11.484;2022-11-14T01:40:43;95192.63;;;3.57;100.00
10093;BME280;5085;48.092;11.484;2022-11-14T01:43:28;95200.03;;;3.55;100.00
10093;BME280;5085;48.092;11.484;2022-11-14T01:46:32;95197.38;;;3.55;100.00
10093;BME280;5085;48.092;11.484;2022-11-14T01:49:23;95187.78;;;3.54;100.00
10093;BME280;5085;48.092;11.484;2022-11-14T01:52:16;95186.38;;;3.51;100.00
10093;BME280;5085;48.092;11.484;2022-11-14T01:55:04;95174.91;;;3.50;100.00
10093;BME280;5085;48.092;11.484;2022-11-14T01:57:49;95169.59;;;3.50;100.00
10093;BME280;5085;48.092;11.484;2022-11-14T02:00:34;95164.03;;;3.52;100.00
10093;BME280;5085;48.092;11.484;2022-11-14T02:03:19;95169.16;;;3.54;100.00
10093;BME280;5085;48.092;11.484;2022-11-14T02:06:05;95170.66;;;3.49;100.00
10093;BME280;5085;48.092;11.484;2022-11-14T02:08:51;95157.53;;;3.48;100.00
10093;BME280;5085;48.092;11.484;2022-11-14T02:11:40;95159.19;;;3.49;100.00
10093;BME280;5085;48.092;11.484;2022-11-14T02:14:25;95160.00;;;3.49;100.00
10093;BME280;5085;48.092;11.484;2022-11-14T02:17:11;95152.56;;;3.51;100.00
10093;BME280;5085;48.092;11.484;2022-11-14T02:22:46;95159.66;;;3.58;100.00
10093;BME280;5085;48.092;11.484;2022-11-14T02:25:31;95167.16;;;3.61;100.00
10093;BME280;5085;48.092;11.484;2022-11-14T02:28:16;95161.38;;;3.64;100.00
10093;BME280;5085;48.092;11.484;2022-11-14T02:31:00;95149.69;;;3.65;100.00
10093;BME280;5085;48.092;11.484;2022-11-14T02:33:44;95142.31;;;3.67;100.00
10093;BME280;5085;48.092;11.484;2022-11-14T02:36:29;95140.44;;;3.67;100.00
10093;BME280;5085;48.092;11.484;2022-11-14T02:39:14;95145.22;;;3.65;100.00
10093;BME280;5085;48.092;11.484;2022-11-14T02:41:58;95164.66;;;3.66;100.00
10093;BME280;5085;48.092;11.484;2022-11-14T02:44:42;95163.25;;;3.63;100.00
10093;BME280;5085;48.092;11.484;2022-11-14T02:47:27;95160.03;;;3.61;100.00
10093;BME280;5085;48.092;11.484;2022-11-14T02:50:12;95146.09;;;3.59;100.00
10093;BME280;5085;48.092;11.484;2022-11-14T02:52:56;95139.06;;;3.53;100.00
10093;BME280;5085;48.092;11.484;2022-11-14T02:55:41;95144.03;;;3.49;100.00
10093;BME280;5085;48.092;11.484;2022-11-14T02:58:25;95142.88;;;3.45;100.00
10093;BME280;5085;48.092;11.484;2022-11-14T03:01:10;95128.16;;;3.43;100.00
10093;BME280;5085;48.092;11.484;2022-11-14T03:03:55;95119.59;;;3.41;100.00
10093;BME280;5085;48.092;11.484;2022-11-14T03:06:39;95122.72;;;3.38;100.00
10093;BME280;5085;48.092;11.484;2022-11-14T03:09:24;95119.69;;;3.34;100.00
10093;BME280;5085;48.092;11.484;2022-11-14T03:12:09;95111.16;;;3.32;100.00
10093;BME280;5085;48.092;11.484;2022-11-14T03:14:53;95116.91;;;3.29;100.00
10093;BME280;5085;48.092;11.484;2022-11-14T03:17:38;95116.31;;;3.27;100.00
10093;BME280;5085;48.092;11.484;2022-11-14T03:20:23;95121.06;;;3.25;100.00
10093;BME280;5085;48.092;11.484;2022-11-14T03:23:07;95121.31;;;3.23;100.00
10093;BME280;5085;48.092;11.484;2022-11-14T03:25:51;95112.97;;;3.20;100.00
10093;BME280;5085;48.092;11.484;2022-11-14T03:28:37;95105.44;;;3.17;100.00
10093;BME280;5085;48.092;11.484;2022-11-14T03:31:22;95097.09;;;3.13;100.00
10093;BME280;5085;48.092;11.484;2022-11-14T03:34:08;95094.69;;;3.12;100.00
10093;BME280;5085;48.092;11.484;2022-11-14T03:36:52;95099.28;;;3.05;100.00
10093;BME280;5085;48.092;11.484;2022-11-14T03:39:37;95123.66;;;3.01;100.00
10093;BME280;5085;48.092;11.484;2022-11-14T03:42:21;95119.63;;;2.99;100.00
10093;BME280;5085;48.092;11.484;2022-11-14T03:45:06;95110.59;;;3.00;100.00
10093;BME280;5085;48.092;11.484;2022-11-14T03:47:53;95113.72;;;2.97;100.00
10093;BME280;5085;48.092;11.484;2022-11-14T03:50:37;95119.72;;;2.92;100.00
10093;BME280;5085;48.092;11.484;2022-11-14T03:53:22;95133.13;;;2.86;100.00
10093;BME280;5085;48.092;11.484;2022-11-14T03:56:07;95133.81;;;2.81;100.00
10093;BME280;5085;48.092;11.484;2022-11-14T03:58:51;95134.47;;;2.77;100.00
10093;BME280;5085;48.092;11.484;2022-11-14T04:01:36;95135.28;;;2.77;100.00
10093;BME280;5085;48.092;11.484;2022-11-14T04:04:20;95136.91;;;2.78;100.00
10093;BME280;5085;48.092;11.484;2022-11-14T04:07:05;95124.66;;;2.77;100.00
10093;BME280;5085;48.092;11.484;2022-11-14T04:09:49;95133.44;;;2.78;100.00
10093;BME280;5085;48.092;11.484;2022-11-14T04:12:35;95150.19;;;2.78;100.00
10093;BME280;5085;48.092;11.484;2022-11-14T04:15:19;95145.44;;;2.80;100.00
10093;BME280;5085;48.092;11.484;2022-11-14T04:18:04;95138.66;;;2.84;100.00
10093;BME280;5085;48.092;11.484;2022-11-14T04:20:48;95129.41;;;2.87;100.00
10093;BME280;5085;48.092;11.484;2022-11-14T04:23:32;95130.22;;;2.87;100.00
10093;BME280;5085;48.092;11.484;2022-11-14T04:26:17;95114.03;;;2.89;100.00
10093;BME280;5085;48.092;11.484;2022-11-14T04:29:01;95118.53;;;2.88;100.00
10093;BME280;5085;48.092;11.484;2022-11-14T04:31:46;95112.66;;;2.86;100.00
10093;BME280;5085;48.092;11.484;2022-11-14T04:34:30;95108.59;;;2.84;100.00
10093;BME280;5085;48.092;11.484;2022-11-14T04:37:15;95110.19;;;2.73;100.00
10093;BME280;5085;48.092;11.484;2022-11-14T04:39:59;95110.63;;;2.70;100.00
10093;BME280;5085;48.092;11.484;2022-11-14T04:42:47;95107.25;;;2.63;100.00
10093;BME280;5085;48.092;11.484;2022-11-14T04:45:31;95099.38;;;2.56;100.00
10093;BME280;5085;48.092;11.484;2022-11-14T04:48:16;95103.28;;;2.54;100.00
10093;BME280;5085;48.092;11.484;2022-11-14T04:51:00;95121.09;;;2.53;100.00
10093;BME280;5085;48.092;11.484;2022-11-14T04:53:45;95129.28;;;2.52;100.00
10093;BME280;5085;48.092;11.484;2022-11-14T04:56:29;95131.47;;;2.55;100.00
10093;BME280;5085;48.092;11.484;2022-11-14T04:59:14;95124.09;;;2.57;100.00
10093;BME280;5085;48.092;11.484;2022-11-14T05:01:59;95123.31;;;2.56;100.00
10093;BME280;5085;48.092;11.484;2022-11-14T05:04:43;95119.69;;;2.50;100.00
10093;BME280;5085;48.092;11.484;2022-11-14T05:07:29;95122.19;;;2.45;100.00
10093;BME280;5085;48.092;11.484;2022-11-14T05:10:13;95124.72;;;2.40;100.00
10093;BME280;5085;48.092;11.484;2022-11-14T05:12:57;95125.75;;;2.39;100.00
10093;BME280;5085;48.092;11.484;2022-11-14T05:15:42;95120.22;;;2.41;100.00
10093;BME280;5085;48.092;11.484;2022-11-14T05:18:26;95121.19;;;2.46;100.00
10093;BME280;5085;48.092;11.484;2022-11-14T05:21:13;95120.16;;;2.47;100.00
10093;BME280;5085;48.092;11.484;2022-11-14T05:23:58;95127.66;;;2.50;100.00
10093;BME280;5085;48.092;11.484;2022-11-14T05:26:43;95124.19;;;2.50;100.00
10093;BME280;5085;48.092;11.484;2022-11-14T05:29:27;95119.69;;;2.50;100.00
10093;BME280;5085;48.092;11.484;2022-11-14T05:32:12;95122.13;;;2.52;100.00
10093;BME280;5085;48.092;11.484;2022-11-14T05:34:56;95114.72;;;2.54;100.00
10093;BME280;5085;48.092;11.484;2022-11-14T05:37:41;95119.91;;;2.49;100.00
10093;BME280;5085;48.092;11.484;2022-11-14T05:40:25;95127.50;;;2.45;100.00
10093;BME280;5085;48.092;11.484;2022-11-14T05:43:09;95120.22;;;2.41;100.00
10093;BME280;5085;48.092;11.484;2022-11-14T05:45:58;95128.84;;;2.36;100.00
10093;BME280;5085;48.092;11.484;2022-11-14T05:48:43;95131.38;;;2.31;100.00
10093;BME280;5085;48.092;11.484;2022-11-14T05:51:27;95131.25;;;2.26;100.00
10093;BME280;5085;48.092;11.484;2022-11-14T05:54:12;95138.03;;;2.22;100.00
10093;BME280;5085;48.092;11.484;2022-11-14T05:56:56;95138.91;;;2.16;100.00
10093;BME280;5085;48.092;11.484;2022-11-14T05:59:41;95136.09;;;2.11;100.00
10093;BME280;5085;48.092;11.484;2022-11-14T06:02:25;95138.38;;;2.07;100.00
10093;BME280;5085;48.092;11.484;2022-11-14T06:05:09;95135.00;;;2.00;100.00
10093;BME280;5085;48.092;11.484;2022-11-14T06:07:56;95138.09;;;1.97;100.00
10093;BME280;5085;48.092;11.484;2022-11-14T06:10:40;95146.72;;;1.92;100.00
10093;BME280;5085;48.092;11.484;2022-11-14T06:13:25;95149.81;;;1.89;100.00
10093;BME280;5085;48.092;11.484;2022-11-14T06:16:12;95147.59;;;1.86;100.00
10093;BME280;5085;48.092;11.484;2022-11-14T06:18:56;95164.97;;;1.82;100.00
10093;BME280;5085;48.092;11.484;2022-11-14T06:21:41;95160.13;;;1.79;100.00
10093;BME280;5085;48.092;11.484;2022-11-14T06:24:25;95172.81;;;1.77;100.00
10093;BME280;5085;48.092;11.484;2022-11-14T06:27:10;95171.59;;;1.73;100.00
10093;BME280;5085;48.092;11.484;2022-11-14T06:29:55;95174.50;;;1.71;100.00
10093;BME280;5085;48.092;11.484;2022-11-14T06:32:39;95177.97;;;1.72;100.00
10093;BME280;5085;48.092;11.484;2022-11-14T06:35:24;95174.41;;;1.78;100.00
10093;BME280;5085;48.092;11.484;2022-11-14T06:38:09;95171.72;;;1.85;100.00
10093;BME280;5085;48.092;11.484;2022-11-14T06:41:00;95163.69;;;1.91;100.00
10093;BME280;5085;48.092;11.484;2022-11-14T06:43:47;95159.72;;;2.00;100.00
10093;BME280;5085;48.092;11.484;2022-11-14T06:46:32;95168.41;;;2.08;100.00
10093;BME280;5085;48.092;11.484;2022-11-14T06:49:16;95168.34;;;2.14;100.00
10093;BME280;5085;48.092;11.484;2022-11-14T06:52:00;95171.16;;;2.19;100.00
10093;BME280;5085;48.092;11.484;2022-11-14T06:54:45;95173.59;;;2.21;100.00
10093;BME280;5085;48.092;11.484;2022-11-14T06:57:30;95164.78;;;2.20;100.00
10093;BME280;5085;48.092;11.484;2022-11-14T07:00:14;95163.31;;;2.24;100.00
10093;BME280;5085;48.092;11.484;2022-11-14T07:02:59;95152.69;;;2.24;100.00
10093;BME280;5085;48.092;11.484;2022-11-14T07:05:43;95161.69;;;2.23;100.00
10093;BME280;5085;48.092;11.484;2022-11-14T07:08:28;95168.88;;;2.23;100.00
10093;BME280;5085;48.092;11.484;2022-11-14T07:11:14;95170.72;;;2.22;100.00
10093;BME280;5085;48.092;11.484;2022-11-14T07:14:09;95163.19;;;2.19;100.00
10093;BME280;5085;48.092;11.484;2022-11-14T07:16:54;95159.47;;;2.20;100.00
10093;BME280;5085;48.092;11.484;2022-11-14T07:19:38;95160.53;;;2.19;100.00
10093;BME280;5085;48.092;11.484;2022-11-14T07:22:23;95160.31;;;2.21;100.00
10093;BME280;5085;48.092;11.484;2022-11-14T07:25:07;95162.88;;;2.28;100.00
10093;BME280;5085;48.092;11.484;2022-11-14T07:27:52;95161.78;;;2.35;100.00
10093;BME280;5085;48.092;11.484;2022-11-14T07:30:36;95157.22;;;2.42;100.00
10093;BME280;5085;48.092;11.484;2022-11-14T07:33:21;95153.22;;;2.52;100.00
10093;BME280;5085;48.092;11.484;2022-11-14T07:36:06;95158.41;;;2.58;100.00
10093;BME280;5085;48.092;11.484;2022-11-14T07:38:51;95162.88;;;2.76;100.00
10093;BME280;5085;48.092;11.484;2022-11-14T07:41:35;95165.06;;;3.39;100.00
10093;BME280;5085;48.092;11.484;2022-11-14T07:44:19;95165.03;;;4.45;100.00
10093;BME280;5085;48.092;11.484;2022-11-14T07:47:04;95162.13;;;5.61;100.00
10093;BME280;5085;48.092;11.484;2022-11-14T07:49:48;95157.63;;;6.78;100.00
10093;BME280;5085;48.092;11.484;2022-11-14T07:52:33;95168.75;;;8.10;100.00
10093;BME280;5085;48.092;11.484;2022-11-14T07:55:18;95168.78;;;9.15;100.00
10093;BME280;5085;48.092;11.484;2022-11-14T07:58:02;95174.78;;;10.14;100.00
10093;BME280;5085;48.092;11.484;2022-11-14T08:00:47;95163.09;;;10.80;100.00
10093;BME280;5085;48.092;11.484;2022-11-14T08:03:32;95160.63;;;11.48;95.54
10093;BME280;5085;48.092;11.484;2022-11-14T08:06:17;95153.44;;;12.12;89.16
10093;BME280;5085;48.092;11.484;2022-11-14T08:09:02;95152.31;;;12.71;83.92
10093;BME280;5085;48.092;11.484;2022-11-14T08:11:47;95145.59;;;13.35;77.76
10093;BME280;5085;48.092;11.484;2022-11-14T08:14:31;95146.81;;;13.24;73.72
10093;BME280;5085;48.092;11.484;2022-11-14T08:17:16;95149.31;;;13.15;76.14
10093;BME280;5085;48.092;11.484;2022-11-14T08:20:00;95144.94;;;13.81;71.60
10093;BME280;5085;48.092;11.484;2022-11-14T08:22:45;95131.00;;;14.53;66.51
10093;BME280;5085;48.092;11.484;2022-11-14T08:25:29;95128.41;;;15.17;62.31
10093;BME280;5085;48.092;11.484;2022-11-14T08:28:14;95136.94;;;15.74;59.22
10093;BME280;5085;48.092;11.484;2022-11-14T08:31:00;95130.81;;;16.13;56.43
10093;BME280;5085;48.092;11.484;2022-11-14T08:33:45;95131.63;;;16.14;56.24
10093;BME280;5085;48.092;11.484;2022-11-14T08:36:29;95134.59;;;16.26;54.77
10093;BME280;5085;48.092;11.484;2022-11-14T08:39:14;95131.69;;;16.22;54.80
10093;BME280;5085;48.092;11.484;2022-11-14T08:41:58;95139.25;;;16.57;53.77
10093;BME280;5085;48.092;11.484;2022-11-14T08:44:43;95134.44;;;16.54;52.83
10093;BME280;5085;48.092;11.484;2022-11-14T08:47:27;95136.72;;;16.69;53.53
10093;BME280;5085;48.092;11.484;2022-11-14T08:50:12;95136.41;;;16.39;53.77
10093;BME280;5085;48.092;11.484;2022-11-14T08:52:56;95133.75;;;15.44;55.40
10093;BME280;5085;48.092;11.484;2022-11-14T08:55:45;95135.63;;;14.20;60.18
10093;BME280;5085;48.092;11.484;2022-11-14T08:58:30;95142.16;;;13.06;67.79
10093;BME280;5085;48.092;11.484;2022-11-14T09:01:15;95138.66;;;12.33;74.80
10093;BME280;5085;48.092;11.484;2022-11-14T09:03:59;95141.31;;;11.70;78.28
10093;BME280;5085;48.092;11.484;2022-11-14T09:06:43;95135.47;;;11.08;83.23
10093;BME280;5085;48.092;11.484;2022-11-14T09:09:29;95134.88;;;10.67;91.72
10093;BME280;5085;48.092;11.484;2022-11-14T09:12:14;95123.88;;;10.48;93.82
10093;BME280;5085;48.092;11.484;2022-11-14T09:14:58;95126.59;;;10.43;92.43
10093;BME280;5085;48.092;11.484;2022-11-14T09:17:43;95132.53;;;10.45;94.78
10093;BME280;5085;48.092;11.484;2022-11-14T09:20:27;95140.03;;;10.48;95.93
10093;BME280;5085;48.092;11.484;2022-11-14T09:23:13;95133.56;;;10.54;96.92
10093;BME280;5085;48.092;11.484;2022-11-14T09:26:06;95133.25;;;10.61;95.84
10093;BME280;5085;48.092;11.484;2022-11-14T09:28:50;95122.38;;;10.86;95.36
10093;BME280;5085;48.092;11.484;2022-11-14T09:31:35;95122.03;;;11.52;92.91
10093;BME280;5085;48.092;11.484;2022-11-14T09:34:19;95122.28;;;12.48;84.99
10093;BME280;5085;48.092;11.484;2022-11-14T09:37:04;95126.47;;;13.83;72.84
10093;BME280;5085;48.092;11.484;2022-11-14T09:39:48;95134.03;;;15.57;64.06
10093;BME280;5085;48.092;11.484;2022-11-14T09:45:23;95145.84;;;18.31;54.14
10093;BME280;5085;48.092;11.484;2022-11-14T09:48:13;95148.16;;;19.22;50.16
10093;BME280;5085;48.092;11.484;2022-11-14T09:51:06;95156.06;;;19.45;48.80
10093;BME280;5085;48.092;11.484;2022-11-14T09:53:56;95160.81;;;19.65;47.85
10093;BME280;5085;48.092;11.484;2022-11-14T09:56:43;95159.28;;;19.97;46.52
10093;BME280;5085;48.092;11.484;2022-11-14T09:59:28;95156.00;;;20.04;45.50
10093;BME280;5085;48.092;11.484;2022-11-14T10:20:08;95153.81;;;24.83;36.21
10093;BME280;5085;48.092;11.484;2022-11-14T10:26:28;95140.13;;;25.33;35.05
10093;BME280;5085;48.092;11.484;2022-11-14T10:32:38;95153.69;;;25.68;34.15
10093;BME280;5085;48.092;11.484;2022-11-14T10:35:34;95147.25;;;25.60;33.78
10093;BME280;5085;48.092;11.484;2022-11-14T10:38:53;95148.84;;;25.84;33.98
10093;BME280;5085;48.092;11.484;2022-11-14T10:41:41;95147.34;;;25.90;33.48
10093;BME280;5085;48.092;11.484;2022-11-14T10:44:32;95141.41;;;25.88;33.20
10093;BME280;5085;48.092;11.484;2022-11-14T10:47:20;95144.00;;;25.78;33.54
10093;BME280;5085;48.092;11.484;2022-11-14T10:50:42;95153.19;;;25.85;34.11
10093;BME280;5085;48.092;11.484;2022-11-14T10:56:25;95154.00;;;26.16;33.12
10093;BME280;5085;48.092;11.484;2022-11-14T10:59:10;95155.91;;;26.12;33.08
10093;BME280;5085;48.092;11.484;2022-11-14T11:01:56;95158.78;;;26.19;33.32
10093;BME280;5085;48.092;11.484;2022-11-14T11:04:42;95153.44;;;26.03;33.23
10093;BME280;5085;48.092;11.484;2022-11-14T11:07:27;95156.28;;;26.10;33.93
10093;BME280;5085;48.092;11.484;2022-11-14T11:10:33;95167.63;;;26.02;34.48
10093;BME280;5085;48.092;11.484;2022-11-14T11:16:36;95160.84;;;25.46;35.65
10093;BME280;5085;48.092;11.484;2022-11-14T11:19:25;95161.31;;;25.52;34.86
10093;BME280;5085;48.092;11.484;2022-11-14T11:22:34;95182.19;;;25.53;35.24
10093;BME280;5085;48.092;11.484;2022-11-14T11:25:24;95182.72;;;25.58;34.97
10093;BME280;5085;48.092;11.484;2022-11-14T11:28:14;95204.41;;;25.37;34.81
10093;BME280;5085;48.092;11.484;2022-11-14T11:31:03;95206.56;;;25.24;35.74
10093;BME280;5085;48.092;11.484;2022-11-14T11:33:48;95202.28;;;25.07;35.23
10093;BME280;5085;48.092;11.484;2022-11-14T11:36:38;95212.69;;;24.94;35.84
10093;BME280;5085;48.092;11.484;2022-11-14T11:39:27;95210.94;;;24.86;36.08
10093;BME280;5085;48.092;11.484;2022-11-14T11:42:22;95206.09;;;24.80;36.45
10093;BME280;5085;48.092;11.484;2022-11-14T11:45:17;95213.63;;;24.09;36.93
10093;BME280;5085;48.092;11.484;2022-11-14T11:50:48;95214.13;;;22.32;40.17
10093;BME280;5085;48.092;11.484;2022-11-14T11:53:36;95203.31;;;21.25;41.63
10093;BME280;5085;48.092;11.484;2022-11-14T11:56:29;95200.09;;;20.23;43.67
10093;BME280;5085;48.092;11.484;2022-11-14T11:59:36;95193.69;;;19.39;46.15
10093;BME280;5085;48.092;11.484;2022-11-14T12:02:25;95202.22;;;19.00;46.13
10093;BME280;5085;48.092;11.484;2022-11-14T12:05:14;95199.56;;;19.59;45.80
10093;BME280;5085;48.092;11.484;2022-11-14T12:08:08;95207.09;;;20.54;44.09
10093;BME280;5085;48.092;11.484;2022-11-14T12:10:57;95205.66;;;21.14;42.14
10093;BME280;5085;48.092;11.484;2022-11-14T12:14:00;95200.38;;;21.42;41.05
10093;BME280;5085;48.092;11.484;2022-11-14T12:20:08;95205.78;;;23.12;38.77
10093;BME280;5085;48.092;11.484;2022-11-14T12:26:22;95204.03;;;23.83;35.87
10093;BME280;5085;48.092;11.484;2022-11-14T12:32:32;95209.47;;;24.34;34.45
10093;BME280;5085;48.092;11.484;2022-11-14T12:35:24;95219.13;;;24.63;35.10
10093;BME280;5085;48.092;11.484;2022-11-14T12:38:14;95214.78;;;24.82;33.81
10093;BME280;5085;48.092;11.484;2022-11-14T12:41:02;95212.31;;;24.96;34.17
10093;BME280;5085;48.092;11.484;2022-11-14T12:43:47;95217.09;;;24.80;34.15
10093;BME280;5085;48.092;11.484;2022-11-14T12:52:44;95214.34;;;24.99;34.03
10093;BME280;5085;48.092;11.484;2022-11-14T13:01:53;95223.47;;;24.10;35.14
10093;BME280;5085;48.092;11.484;2022-11-14T13:08:04;95224.56;;;22.14;39.22
10093;BME280;5085;48.092;11.484;2022-11-14T13:10:52;95220.84;;;20.66;41.43
10093;BME280;5085;48.092;11.484;2022-11-14T13:13:57;95217.88;;;19.29;44.79
10093;BME280;5085;48.092;11.484;2022-11-14T13:28:57;95207.41;;;15.93;57.52
10093;BME280;5085;48.092;11.484;2022-11-14T13:31:44;95214.88;;;15.73;61.39
10093;BME280;5085;48.092;11.484;2022-11-14T13:37:42;95203.34;;;15.27;63.51
10093;BME280;5085;48.092;11.484;2022-11-14T13:43:46;95199.81;;;14.98;67.55
10093;BME280;5085;48.092;11.484;2022-11-14T13:52:33;95196.97;;;14.76;68.90
10093;BME280;5085;48.092;11.484;2022-11-14T13:55:27;95192.56;;;14.66;68.65
10093;BME280;5085;48.092;11.484;2022-11-14T14:04:24;95192.44;;;14.58;69.04
10093;BME280;5085;48.092;11.484;2022-11-14T14:07:20;95194.72;;;14.50;69.81
10093;BME280;5085;48.092;11.484;2022-11-14T14:10:22;95194.44;;;14.33;68.58
10093;BME280;5085;48.092;11.484;2022-11-14T14:16:14;95197.44;;;13.99;74.30
10093;BME280;5085;48.092;11.484;2022-11-14T14:19:11;95192.19;;;13.70;77.53
10093;BME280;5085;48.092;11.484;2022-11-14T14:22:07;95189.66;;;13.36;82.65
10093;BME280;5085;48.092;11.484;2022-11-14T14:25:21;95188.19;;;13.00;87.04
10093;BME280;5085;48.092;11.484;2022-11-14T14:31:38;95189.78;;;12.48;90.26
10093;BME280;5085;48.092;11.484;2022-11-14T14:34:28;95188.56;;;12.36;90.88
10093;BME280;5085;48.092;11.484;2022-11-14T14:37:22;95186.81;;;12.21;92.48
10093;BME280;5085;48.092;11.484;2022-11-14T14:43:14;95195.97;;;11.91;95.00
10093;BME280;5085;48.092;11.484;2022-11-14T14:46:05;95195.28;;;11.70;97.18
10093;BME280;5085;48.092;11.484;2022-11-14T14:48:49;95195.94;;;11.46;99.98
10093;BME280;5085;48.092;11.484;2022-11-14T14:51:35;95203.31;;;11.25;100.00
10093;BME280;5085;48.092;11.484;2022-11-14T14:54:26;95193.47;;;11.00;100.00
10093;BME280;5085;48.092;11.484;2022-11-14T14:57:16;95194.06;;;10.82;100.00
10093;BME280;5085;48.092;11.484;2022-11-14T15:00:05;95198.97;;;10.65;100.00
10093;BME280;5085;48.092;11.484;2022-11-14T15:02:53;95201.13;;;10.52;100.00
10093;BME280;5085;48.092;11.484;2022-11-14T15:05:38;95197.41;;;10.38;100.00
10093;BME280;5085;48.092;11.484;2022-11-14T15:08:22;95190.16;;;10.29;100.00
10093;BME280;5085;48.092;11.484;2022-11-14T15:11:07;95188.22;;;10.14;100.00
10093;BME280;5085;48.092;11.484;2022-11-14T15:13:54;95188.78;;;10.00;100.00
10093;BME280;5085;48.092;11.484;2022-11-14T15:16:43;95192.28;;;9.86;100.00
10093;BME280;5085;48.092;11.484;2022-11-14T15:19:36;95190.94;;;9.73;100.00
10093;BME280;5085;48.092;11.484;2022-11-14T15:22:24;95185.00;;;9.61;100.00
10093;BME280;5085;48.092;11.484;2022-11-14T15:27:57;95194.34;;;9.38;100.00
10093;BME280;5085;48.092;11.484;2022-11-14T15:30:55;95182.78;;;9.22;100.00
10093;BME280;5085;48.092;11.484;2022-11-14T15:33:44;95192.38;;;9.08;100.00
10093;BME280;5085;48.092;11.484;2022-11-14T15:36:29;95191.00;;;8.95;100.00
10093;BME280;5085;48.092;11.484;2022-11-14T15:39:26;95191.19;;;8.78;100.00
10093;BME280;5085;48.092;11.484;2022-11-14T15:44:58;95177.91;;;8.51;100.00
10093;BME280;5085;48.092;11.484;2022-11-14T15:47:43;95182.38;;;8.40;100.00
10093;BME280;5085;48.092;11.484;2022-11-14T15:50:32;95189.56;;;8.30;100.00
10093;BME280;5085;48.092;11.484;2022-11-14T15:53:26;95186.78;;;8.19;100.00
10093;BME280;5085;48.092;11.484;2022-11-14T15:56:11;95186.47;;;8.11;100.00
10093;BME280;5085;48.092;11.484;2022-11-14T15:58:59;95186.44;;;8.06;100.00
10093;BME280;5085;48.092;11.484;2022-11-14T16:01:45;95185.59;;;8.00;100.00
10093;BME280;5085;48.092;11.484;2022-11-14T16:04:35;95179.38;;;7.94;100.00
10093;BME280;5085;48.092;11.484;2022-11-14T16:07:21;95179.31;;;7.89;100.00
10093;BME280;5085;48.092;11.484;2022-11-14T16:10:26;95183.59;;;7.85;100.00
10093;BME280;5085;48.092;11.484;2022-11-14T16:13:10;95179.56;;;7.83;100.00
10093;BME280;5085;48.092;11.484;2022-11-14T16:15:55;95184.13;;;7.82;100.00
10093;BME280;5085;48.092;11.484;2022-11-14T16:18:39;95180.09;;;7.85;100.00
10093;BME280;5085;48.092;11.484;2022-11-14T16:21:24;95187.91;;;7.86;100.00
10093;BME280;5085;48.092;11.484;2022-11-14T16:24:13;95182.53;;;7.86;100.00
10093;BME280;5085;48.092;11.484;2022-11-14T16:26:58;95181.72;;;7.86;100.00
10093;BME280;5085;48.092;11.484;2022-11-14T16:29:43;95181.47;;;7.87;100.00
10093;BME280;5085;48.092;11.484;2022-11-14T16:32:27;95181.47;;;7.87;100.00
10093;BME280;5085;48.092;11.484;2022-11-14T16:35:14;95187.94;;;7.91;100.00